Hauptseite
METAR-TAF:

METAR-TAF

Flughäfen :

Internationaler König-Abd-al-Aziz-Flughafen

Dschidda, Saudi-Arabien

Breite: 21-42N, Länge: 039-11E, Höhe: 15 m

Beobachtung

Neuester Wetterbericht von vor 59 Minuten, um 05:00 UTC
Wind 6 kt aus Nord/Nordwest
Temperatur 29°C
Luftfeuchtigkeit 62%
Luftdruck 1005 hPa
Sichtweite 10 km oder mehr
keine Wolken unter 1500 m und keine Kumulonimbus oder Gewitterwolken

METAR: OEJN 040500Z 33006KT CAVOK 29/21 Q1005 NOSIG

Zeit: 08:59 (05:59 UTC)

Prognose

Neuester Wetterbericht von vor 6 Stunden und 59 Minuten, um 23:00 UTC
Gültige Prognose vom 04 um 00 UTC bis 05 um 06 UTC
Wind 3 kt aus unterschiedlichen Richtungen
Sichtweite 10 km oder mehr
keine Wolken unter 1500 m und keine Kumulonimbus oder Gewitterwolken
Übergehend zu
vom 04 um 06 UTC bis 04 um 08 UTC
Wind 25 kt aus Nordwest

TAF: OEJN 032300Z 0400/0506 VRB03KT CAVOK BECMG 0406/0408 32025KT

Wetterbeobachtungen und Prognosen von mehr als 4000 Flughäfen (METAR und TAF Bericht).

Die verfügbaren Stationen werden durch gelbe und rote Markierungen auf der Karte dargestellt.

Führen Sie die Maus auf sie, um den Namen der Station zu sehen.

Darauf klicken, um die Beobachtung von Wetterbeobachtungen und Prognosen zu sehen.

Um die Karte zu ändern : klicken Sie auf den grünen Tasten mit einem schwarzen Kreuz Zum Vergrößern, auf den grünen Button mit einem Gedankenstrich zu verkleinern, oder auf die grünen Pfeile für benachbarte Karten.


METAR-TAF: